Time;durP1;ratioP1;P1;durP2;ratioP2;P2;SDS_P1;SDS_P2;PMS_P1;PMS_P2;Temp;Humidity;BMP_temperature;BMP_pressure;BME280_temperature;BME280_humidity;BME280_pressure;Samples;Min_cycle;Max_cycle;Signal;HPM_P1;HPM_P2
2021/10/17 00:00:53;;;;;;;14.73;6.90;;;9.80;99.90;;;;;;4097462;28;20128;-77
2021/10/17 00:02:54;;;;;;;18.50;7.90;;;9.80;99.90;;;;;;4099182;28;20050;-76
2021/10/17 00:04:55;;;;;;;21.70;9.02;;;9.70;99.90;;;;;;4113227;28;20033;-76
2021/10/17 00:06:55;;;;;;;13.93;8.02;;;9.70;99.90;;;;;;4099386;28;20035;-76
2021/10/17 00:08:57;;;;;;;16.58;8.35;;;9.70;99.90;;;;;;4098854;28;20049;-76
2021/10/17 00:10:58;;;;;;;17.77;7.65;;;9.80;99.90;;;;;;4099643;28;20537;-76
2021/10/17 00:13:05;;;;;;;17.15;7.22;;;9.80;99.90;;;;;;4097473;28;20047;-76
2021/10/17 00:15:09;;;;;;;20.35;9.07;;;9.80;99.90;;;;;;4097733;28;20471;-76
2021/10/17 00:17:10;;;;;;;17.27;8.20;;;9.80;99.90;;;;;;4098385;28;21089;-75
2021/10/17 00:19:10;;;;;;;21.95;8.50;;;9.90;99.90;;;;;;4097409;28;20023;-76
2021/10/17 00:21:11;;;;;;;20.00;7.07;;;9.90;99.90;;;;;;4098562;28;20043;-75
2021/10/17 00:23:12;;;;;;;18.77;7.50;;;9.90;99.90;;;;;;4082360;28;20126;-76
2021/10/17 00:25:14;;;;;;;11.07;6.80;;;10.00;99.90;;;;;;4095920;28;20039;-76
2021/10/17 00:27:14;;;;;;;14.40;6.93;;;9.90;99.90;;;;;;4112968;28;20422;-74
2021/10/17 00:29:15;;;;;;;14.52;7.75;;;9.90;99.90;;;;;;4096859;28;20026;-76
2021/10/17 00:31:16;;;;;;;13.02;7.93;;;9.80;99.90;;;;;;4098539;28;20039;-76
2021/10/17 00:33:16;;;;;;;18.15;7.90;;;9.80;99.90;;;;;;4112448;28;20680;-76
2021/10/17 00:35:17;;;;;;;13.20;7.05;;;9.70;99.90;;;;;;4096047;28;20031;-76
2021/10/17 00:37:19;;;;;;;18.00;7.57;;;9.70;99.90;;;;;;4098873;28;20066;-76
2021/10/17 00:39:19;;;;;;;16.83;8.18;;;9.60;99.90;;;;;;4098645;28;20047;-76
2021/10/17 00:41:20;;;;;;;12.07;7.78;;;9.60;99.90;;;;;;4100101;28;20031;-75
2021/10/17 00:43:22;;;;;;;15.52;8.32;;;9.50;99.90;;;;;;4098932;28;20058;-75
2021/10/17 00:45:29;;;;;;;15.23;7.63;;;9.50;99.90;;;;;;4098604;28;20027;-76
2021/10/17 00:47:30;;;;;;;16.73;10.02;;;9.50;99.90;;;;;;4097832;28;20061;-76
2021/10/17 00:49:31;;;;;;;13.70;7.82;;;9.50;99.90;;;;;;4100580;28;20039;-76
2021/10/17 00:51:32;;;;;;;12.18;7.68;;;9.50;99.90;;;;;;4098027;28;20042;-77
2021/10/17 00:53:32;;;;;;;20.55;7.50;;;9.50;99.90;;;;;;4095972;28;20113;-76
2021/10/17 00:55:33;;;;;;;11.95;6.97;;;9.50;99.90;;;;;;4083217;28;20146;-76
2021/10/17 00:57:36;;;;;;;11.85;6.22;;;9.50;99.90;;;;;;4097281;28;20046;-77
2021/10/17 00:59:37;;;;;;;20.60;8.87;;;9.50;99.90;;;;;;4098109;28;20066;-76
2021/10/17 01:01:38;;;;;;;16.80;8.10;;;9.50;99.90;;;;;;4097281;28;20641;-76
2021/10/17 01:03:39;;;;;;;13.05;6.30;;;9.50;99.90;;;;;;4082416;28;20043;-77
2021/10/17 01:05:40;;;;;;;15.43;6.38;;;9.60;99.90;;;;;;4096693;28;20055;-77
2021/10/17 01:07:42;;;;;;;10.00;6.60;;;9.80;99.90;;;;;;4116119;28;20042;-75
2021/10/17 01:09:43;;;;;;;14.48;7.20;;;9.90;99.90;;;;;;4117543;28;20042;-76
2021/10/17 01:11:48;;;;;;;16.65;6.82;;;9.90;99.90;;;;;;4101010;28;20091;-74
2021/10/17 01:13:49;;;;;;;15.30;7.88;;;9.80;99.90;;;;;;4100745;28;20089;-79
2021/10/17 01:15:56;;;;;;;15.98;8.40;;;9.70;99.90;;;;;;4099969;28;20114;-75
2021/10/17 01:17:57;;;;;;;18.30;9.48;;;9.70;99.90;;;;;;4102121;28;20133;-75
2021/10/17 01:19:57;;;;;;;15.70;8.80;;;9.60;99.90;;;;;;4100776;28;20447;-76
2021/10/17 01:21:58;;;;;;;13.02;8.18;;;9.50;99.90;;;;;;4101735;28;20865;-77
2021/10/17 01:23:59;;;;;;;16.67;8.43;;;9.40;99.90;;;;;;4102302;28;20537;-76
2021/10/17 01:26:00;;;;;;;14.57;7.97;;;9.40;99.90;;;;;;4101839;28;20070;-77
2021/10/17 01:28:00;;;;;;;15.52;8.02;;;9.40;99.90;;;;;;4100781;28;21000;-76
2021/10/17 01:30:03;;;;;;;21.95;9.25;;;9.40;99.90;;;;;;4101329;28;20852;-76
2021/10/17 01:32:04;;;;;;;15.95;7.70;;;9.40;99.90;;;;;;4117122;28;20069;-76
2021/10/17 01:34:08;;;;;;;14.52;7.65;;;9.40;99.90;;;;;;4098719;28;20050;-76
2021/10/17 01:36:09;;;;;;;13.90;7.57;;;9.50;99.90;;;;;;4086199;28;20413;-77
2021/10/17 01:38:10;;;;;;;16.75;8.55;;;9.50;99.90;;;;;;4099497;28;20133;-77
2021/10/17 01:40:12;;;;;;;14.40;6.95;;;9.50;99.90;;;;;;4100640;28;20120;-76
2021/10/17 01:42:12;;;;;;;17.95;7.10;;;9.40;99.90;;;;;;4101493;28;20077;-77
2021/10/17 01:44:24;;;;;;;18.23;7.80;;;9.40;99.90;;;;;;4101289;28;20471;-77
2021/10/17 01:46:24;;;;;;;16.25;7.38;;;9.50;99.90;;;;;;4101850;28;20979;-77
2021/10/17 01:48:28;;;;;;;13.35;6.35;;;9.50;99.90;;;;;;4099712;28;20083;-76
2021/10/17 01:50:29;;;;;;;15.95;6.88;;;9.60;99.90;;;;;;4083276;28;20043;-76
2021/10/17 01:52:31;;;;;;;16.17;7.63;;;9.70;99.90;;;;;;4101006;28;20035;-76
2021/10/17 01:54:32;;;;;;;13.88;7.00;;;9.80;99.90;;;;;;4101626;28;20038;-76
2021/10/17 01:56:34;;;;;;;13.77;6.25;;;9.70;99.90;;;;;;4100408;28;20031;-77
2021/10/17 01:58:35;;;;;;;12.48;7.30;;;9.70;99.90;;;;;;4100724;28;20442;-77
2021/10/17 02:00:36;;;;;;;15.02;6.60;;;9.60;99.90;;;;;;4099326;28;20075;-75
2021/10/17 02:02:36;;;;;;;12.73;7.75;;;9.60;99.90;;;;;;4100099;28;20094;-75
2021/10/17 02:04:37;;;;;;;17.40;8.55;;;9.70;99.90;;;;;;4101319;28;20153;-75
2021/10/17 02:06:38;;;;;;;17.52;7.85;;;9.60;99.90;;;;;;4116239;28;20474;-76
2021/10/17 02:08:38;;;;;;;17.00;7.38;;;9.60;99.90;;;;;;4097828;28;20043;-76
2021/10/17 02:10:39;;;;;;;14.45;7.60;;;9.70;99.90;;;;;;4099790;28;20043;-75
2021/10/17 02:12:40;;;;;;;12.63;6.88;;;9.70;99.90;;;;;;4084596;28;20134;-77
2021/10/17 02:14:40;;;;;;;20.33;8.45;;;9.60;99.90;;;;;;4100495;28;20419;-75
2021/10/17 02:16:41;;;;;;;11.43;6.82;;;9.50;99.90;;;;;;4085069;28;20039;-75
2021/10/17 02:18:42;;;;;;;13.05;7.85;;;9.40;99.90;;;;;;4098848;28;20497;-76
2021/10/17 02:20:43;;;;;;;18.52;7.78;;;9.40;99.90;;;;;;4100252;28;20062;-76
2021/10/17 02:22:44;;;;;;;18.25;10.05;;;9.30;99.90;;;;;;4098718;28;20113;-76
2021/10/17 02:24:44;;;;;;;15.00;8.65;;;9.20;99.90;;;;;;4100194;28;20102;-76
2021/10/17 02:26:45;;;;;;;14.95;7.80;;;9.20;99.90;;;;;;4099986;28;20065;-76
2021/10/17 02:28:46;;;;;;;11.55;7.53;;;9.10;99.90;;;;;;4085670;28;20466;-76
2021/10/17 02:30:47;;;;;;;16.42;7.25;;;9.10;99.90;;;;;;4100089;28;20030;-75
2021/10/17 02:32:48;;;;;;;18.27;7.53;;;9.10;99.90;;;;;;4100146;28;20090;-75
2021/10/17 02:34:48;;;;;;;11.88;7.65;;;9.10;99.90;;;;;;4101175;28;22528;-76
2021/10/17 02:36:49;;;;;;;11.13;7.20;;;9.10;99.90;;;;;;4101816;28;20054;-76
2021/10/17 02:38:50;;;;;;;16.63;6.57;;;9.10;99.90;;;;;;4099150;28;20035;-75
2021/10/17 02:40:51;;;;;;;21.13;7.40;;;9.20;99.90;;;;;;4098780;28;20038;-76
2021/10/17 02:42:52;;;;;;;15.15;7.53;;;9.30;99.90;;;;;;4100994;28;20102;-76
2021/10/17 02:44:53;;;;;;;17.50;7.85;;;9.20;99.90;;;;;;4099907;28;20121;-75
2021/10/17 02:46:53;;;;;;;12.05;7.03;;;9.10;99.90;;;;;;4101508;28;20118;-77
2021/10/17 02:48:54;;;;;;;15.07;8.07;;;9.10;99.90;;;;;;4099698;28;20132;-77
2021/10/17 02:50:55;;;;;;;17.33;7.93;;;9.00;99.90;;;;;;4084141;28;20053;-76
2021/10/17 02:52:56;;;;;;;15.27;6.57;;;8.90;99.90;;;;;;4100817;28;20106;-75
2021/10/17 02:54:57;;;;;;;16.05;7.63;;;8.80;99.90;;;;;;4100154;28;20056;-76
2021/10/17 02:56:57;;;;;;;18.08;7.82;;;8.80;99.90;;;;;;4101497;28;20042;-77
2021/10/17 02:58:58;;;;;;;22.90;10.23;;;8.90;99.90;;;;;;4098692;28;20047;-77
2021/10/17 03:00:58;;;;;;;22.00;9.07;;;8.80;99.90;;;;;;4100184;28;20031;-77
2021/10/17 03:02:59;;;;;;;11.80;7.38;;;8.70;99.90;;;;;;4099009;28;20046;-76
2021/10/17 03:05:01;;;;;;;18.08;8.45;;;8.70;99.90;;;;;;4101946;28;20212;-77
2021/10/17 03:07:02;;;;;;;18.95;8.30;;;8.70;99.90;;;;;;4083912;28;20390;-76
2021/10/17 03:09:03;;;;;;;13.65;8.50;;;8.60;99.90;;;;;;4101693;28;20039;-76
2021/10/17 03:11:04;;;;;;;15.38;8.10;;;8.60;99.90;;;;;;4098644;28;20046;-76
2021/10/17 03:13:05;;;;;;;18.38;8.88;;;8.60;99.90;;;;;;4096635;28;20066;-77
2021/10/17 03:15:07;;;;;;;17.85;9.20;;;8.60;99.90;;;;;;4099560;28;20039;-77
2021/10/17 03:17:08;;;;;;;19.02;8.13;;;8.60;99.90;;;;;;4083842;28;20523;-75
2021/10/17 03:19:09;;;;;;;14.60;8.45;;;8.50;99.90;;;;;;4099076;28;20130;-75
2021/10/17 03:21:10;;;;;;;21.77;10.52;;;8.50;99.90;;;;;;4100883;28;20145;-75
2021/10/17 03:23:10;;;;;;;15.30;9.63;;;8.50;99.90;;;;;;4101298;28;20051;-76
2021/10/17 03:25:11;;;;;;;14.73;9.38;;;8.50;99.90;;;;;;4083410;28;20521;-77
2021/10/17 03:27:12;;;;;;;15.55;9.80;;;8.50;99.90;;;;;;4098571;28;20113;-76
2021/10/17 03:29:13;;;;;;;18.00;10.70;;;8.50;99.90;;;;;;4100961;28;20507;-76
2021/10/17 03:31:14;;;;;;;16.30;9.77;;;8.50;99.90;;;;;;4101761;28;20035;-76
2021/10/17 03:33:14;;;;;;;22.27;11.30;;;8.50;99.90;;;;;;4098701;28;20142;-77
2021/10/17 03:35:15;;;;;;;23.42;10.60;;;8.40;99.90;;;;;;4098735;28;20118;-76
2021/10/17 03:37:16;;;;;;;21.42;11.57;;;8.40;99.90;;;;;;4100661;28;20046;-76
2021/10/17 03:39:17;;;;;;;15.38;10.15;;;8.30;99.90;;;;;;4098900;28;20085;-76
2021/10/17 03:41:18;;;;;;;18.33;10.77;;;8.30;99.90;;;;;;4098789;28;20034;-76
2021/10/17 03:43:19;;;;;;;19.92;11.82;;;8.20;99.90;;;;;;4098847;28;20130;-76
2021/10/17 03:45:20;;;;;;;19.45;11.95;;;8.20;99.90;;;;;;4084945;28;20035;-75
2021/10/17 03:47:21;;;;;;;17.50;11.55;;;8.20;99.90;;;;;;4099397;28;20039;-77
2021/10/17 03:49:22;;;;;;;18.15;11.13;;;8.10;99.90;;;;;;4096902;28;20042;-77
2021/10/17 03:51:23;;;;;;;21.08;10.60;;;8.20;99.90;;;;;;4099253;28;20035;-75
2021/10/17 03:53:23;;;;;;;19.05;10.15;;;8.10;99.90;;;;;;4096690;28;20045;-76
2021/10/17 03:55:24;;;;;;;16.45;9.65;;;8.10;99.90;;;;;;4099102;28;20038;-75
2021/10/17 03:57:25;;;;;;;18.83;9.93;;;8.20;99.90;;;;;;4098437;28;20169;-76
2021/10/17 03:59:26;;;;;;;12.13;10.43;;;8.20;99.90;;;;;;4082347;28;20039;-75
2021/10/17 04:01:27;;;;;;;15.35;9.38;;;8.20;99.90;;;;;;4098682;28;20101;-75
2021/10/17 04:03:28;;;;;;;16.42;10.20;;;8.20;99.90;;;;;;4097663;28;20078;-76
2021/10/17 04:05:28;;;;;;;20.27;10.52;;;8.20;99.90;;;;;;4097182;28;20483;-76
2021/10/17 04:07:29;;;;;;;22.50;10.82;;;8.20;99.90;;;;;;4099900;28;20047;-75
2021/10/17 04:09:30;;;;;;;19.67;10.68;;;8.10;99.90;;;;;;4098452;28;20039;-76
2021/10/17 04:11:31;;;;;;;22.48;11.65;;;8.10;99.90;;;;;;4099592;28;20150;-77
2021/10/17 04:13:32;;;;;;;22.33;11.88;;;8.10;99.90;;;;;;4097921;28;20425;-74
2021/10/17 04:15:36;;;;;;;16.73;10.13;;;8.00;99.90;;;;;;4100121;28;20039;-76
2021/10/17 04:17:37;;;;;;;18.40;11.13;;;8.00;99.90;;;;;;4096994;28;20030;-76
2021/10/17 04:19:37;;;;;;;15.75;10.27;;;8.00;99.90;;;;;;4099162;28;20042;-76
2021/10/17 04:21:38;;;;;;;18.95;11.43;;;8.00;99.90;;;;;;4098608;28;20049;-76
2021/10/17 04:23:39;;;;;;;17.25;10.80;;;8.00;99.90;;;;;;4099007;28;20049;-77
2021/10/17 04:25:39;;;;;;;24.05;11.68;;;8.00;99.90;;;;;;4100849;28;20055;-77
2021/10/17 04:27:40;;;;;;;15.23;10.32;;;8.00;99.90;;;;;;4099478;28;20047;-77
2021/10/17 04:29:41;;;;;;;19.60;11.15;;;8.00;99.90;;;;;;4098056;28;20047;-76
2021/10/17 04:31:42;;;;;;;21.30;10.38;;;8.00;99.90;;;;;;4099539;28;20050;-76
2021/10/17 04:33:43;;;;;;;16.95;10.98;;;8.00;99.90;;;;;;4097274;28;20047;-76
2021/10/17 04:35:45;;;;;;;23.23;11.15;;;8.00;99.90;;;;;;4099470;28;20153;-75
2021/10/17 04:37:45;;;;;;;21.20;12.02;;;8.00;99.90;;;;;;4097944;28;20054;-76
2021/10/17 04:39:46;;;;;;;20.08;11.45;;;8.00;99.90;;;;;;4099301;28;20038;-76
2021/10/17 04:41:47;;;;;;;19.95;11.25;;;8.00;99.90;;;;;;4081137;28;20399;-76
2021/10/17 04:43:48;;;;;;;19.67;10.73;;;7.90;99.90;;;;;;4097949;28;20568;-76
2021/10/17 04:45:49;;;;;;;23.10;10.85;;;7.90;99.90;;;;;;4113683;28;20129;-76
2021/10/17 04:47:50;;;;;;;15.18;11.13;;;7.90;99.90;;;;;;4099474;28;20057;-76
2021/10/17 04:49:51;;;;;;;26.95;11.48;;;7.90;99.90;;;;;;4096463;28;20155;-76
2021/10/17 04:51:55;;;;;;;18.30;11.77;;;7.90;99.90;;;;;;4082930;28;20047;-76
2021/10/17 04:53:56;;;;;;;19.90;11.63;;;7.90;99.90;;;;;;4097788;28;20043;-76
2021/10/17 04:55:57;;;;;;;17.40;12.18;;;7.90;99.90;;;;;;4098707;28;20042;-76
2021/10/17 04:57:57;;;;;;;16.38;10.73;;;7.90;99.90;;;;;;4083961;28;20436;-76
2021/10/17 04:59:58;;;;;;;21.23;11.18;;;7.80;99.90;;;;;;4096399;28;20050;-76
2021/10/17 05:01:59;;;;;;;21.45;11.75;;;7.70;99.90;;;;;;4099432;28;20042;-75
2021/10/17 05:03:59;;;;;;;20.55;11.35;;;7.70;99.90;;;;;;4098449;28;20074;-76
2021/10/17 05:06:00;;;;;;;19.10;11.80;;;7.70;99.90;;;;;;4098711;28;20042;-75
2021/10/17 05:08:02;;;;;;;20.83;12.43;;;7.70;99.90;;;;;;4098385;28;20045;-77
2021/10/17 05:10:04;;;;;;;20.92;12.30;;;7.70;99.90;;;;;;4081262;28;20046;-76
2021/10/17 05:12:05;;;;;;;21.20;11.10;;;7.70;99.90;;;;;;4084076;28;20483;-75
2021/10/17 05:14:06;;;;;;;18.85;11.63;;;7.80;99.90;;;;;;4097739;28;20039;-75
2021/10/17 05:16:06;;;;;;;19.63;11.35;;;7.80;99.90;;;;;;4098143;28;20055;-76
2021/10/17 05:18:07;;;;;;;24.83;12.05;;;7.80;99.90;;;;;;4097157;28;20066;-77
2021/10/17 05:20:09;;;;;;;17.85;12.38;;;7.90;99.90;;;;;;4096844;28;20057;-74
2021/10/17 05:22:10;;;;;;;22.20;12.82;;;7.90;99.90;;;;;;4099267;28;20070;-75
2021/10/17 05:24:11;;;;;;;19.23;12.32;;;7.90;99.90;;;;;;4098053;28;20046;-75
2021/10/17 05:26:12;;;;;;;21.85;12.43;;;8.00;99.90;;;;;;4082246;28;20031;-76
2021/10/17 05:28:12;;;;;;;19.55;12.50;;;8.00;99.90;;;;;;4097804;28;20054;-76
2021/10/17 05:30:13;;;;;;;17.58;11.63;;;8.00;99.90;;;;;;4096890;28;20066;-76
2021/10/17 05:32:14;;;;;;;20.98;11.57;;;8.10;99.90;;;;;;4115270;28;20038;-75
2021/10/17 05:34:15;;;;;;;23.00;12.55;;;8.10;99.90;;;;;;4097780;28;20050;-76
2021/10/17 05:36:16;;;;;;;21.90;12.00;;;8.10;99.90;;;;;;4082365;28;20039;-75
2021/10/17 05:38:17;;;;;;;27.25;11.70;;;8.10;99.90;;;;;;4097246;28;20038;-76
2021/10/17 05:40:18;;;;;;;24.05;12.95;;;8.10;99.90;;;;;;4099234;28;20043;-76
2021/10/17 05:42:19;;;;;;;20.95;12.32;;;8.10;99.90;;;;;;4096522;28;20050;-76
2021/10/17 05:44:19;;;;;;;21.73;12.35;;;8.10;99.90;;;;;;4098538;28;20057;-75
2021/10/17 05:46:20;;;;;;;23.27;12.82;;;8.10;99.90;;;;;;4099134;28;20552;-77
2021/10/17 05:48:21;;;;;;;25.23;11.90;;;8.10;99.90;;;;;;4113636;28;20091;-76
2021/10/17 05:50:22;;;;;;;16.65;11.95;;;8.10;99.90;;;;;;4096593;28;20468;-76
2021/10/17 05:52:22;;;;;;;21.27;12.90;;;8.10;99.90;;;;;;4097949;28;20061;-75
2021/10/17 05:54:23;;;;;;;27.20;12.95;;;8.10;99.90;;;;;;4101407;28;20039;-76
2021/10/17 05:56:24;;;;;;;24.00;13.02;;;8.10;99.90;;;;;;4114409;28;20038;-76
2021/10/17 05:58:25;;;;;;;25.33;12.20;;;8.10;99.90;;;;;;4100517;28;20042;-77
2021/10/17 06:00:26;;;;;;;24.80;12.13;;;8.10;99.90;;;;;;4099647;28;20097;-75
2021/10/17 06:02:26;;;;;;;21.58;12.38;;;8.10;99.90;;;;;;4116443;28;20510;-76
2021/10/17 06:04:27;;;;;;;17.33;12.38;;;8.10;99.90;;;;;;4084599;28;20047;-77
2021/10/17 06:06:28;;;;;;;21.55;12.15;;;8.10;99.90;;;;;;4101805;28;20065;-77
2021/10/17 06:08:34;;;;;;;20.08;12.32;;;8.10;99.90;;;;;;4084111;28;20487;-76
2021/10/17 06:10:35;;;;;;;18.10;12.50;;;8.10;99.90;;;;;;4100749;28;20367;-74
2021/10/17 06:12:38;;;;;;;21.35;12.55;;;8.00;99.90;;;;;;4100783;28;20035;-76
2021/10/17 06:14:38;;;;;;;32.30;14.90;;;8.00;99.90;;;;;;4099382;28;20049;-76
2021/10/17 06:16:39;;;;;;;21.35;13.85;;;8.00;99.90;;;;;;4099002;28;20924;-77
2021/10/17 06:18:40;;;;;;;22.15;12.65;;;8.00;99.90;;;;;;4101436;28;20047;-76
2021/10/17 06:20:40;;;;;;;24.17;13.38;;;8.00;99.90;;;;;;4098995;28;20063;-76
2021/10/17 06:22:41;;;;;;;23.70;13.18;;;8.00;99.90;;;;;;4085011;28;20556;-74
2021/10/17 06:24:42;;;;;;;27.58;14.65;;;8.00;99.90;;;;;;4114571;28;20047;-76
2021/10/17 06:26:42;;;;;;;24.10;13.55;;;8.00;99.90;;;;;;4100894;28;20047;-76
2021/10/17 06:28:43;;;;;;;22.10;13.60;;;8.00;99.90;;;;;;4083428;28;20047;-76
2021/10/17 06:30:44;;;;;;;26.27;14.27;;;8.10;99.90;;;;;;4082868;28;20110;-75
2021/10/17 06:32:45;;;;;;;22.85;14.07;;;8.10;99.90;;;;;;4099485;28;20061;-77
2021/10/17 06:34:46;;;;;;;19.40;12.43;;;8.10;99.90;;;;;;4099462;28;20051;-77
2021/10/17 06:36:47;;;;;;;22.33;14.05;;;8.20;99.90;;;;;;4114169;28;20057;-77
2021/10/17 06:38:48;;;;;;;20.70;14.40;;;8.20;99.90;;;;;;4098750;28;20035;-76
2021/10/17 06:40:48;;;;;;;29.48;13.90;;;8.20;99.90;;;;;;4099961;28;20042;-75
2021/10/17 06:42:49;;;;;;;22.42;12.40;;;8.20;99.90;;;;;;4101324;28;20045;-76
2021/10/17 06:44:50;;;;;;;20.25;13.93;;;8.30;99.90;;;;;;4100547;28;20055;-75
2021/10/17 06:46:52;;;;;;;25.42;13.40;;;8.30;99.90;;;;;;4100471;28;20038;-75
2021/10/17 06:48:53;;;;;;;21.75;13.10;;;8.30;99.90;;;;;;4114430;28;20038;-75
2021/10/17 06:50:53;;;;;;;19.25;13.13;;;8.40;99.90;;;;;;4099156;28;20094;-74
2021/10/17 06:52:54;;;;;;;21.98;12.68;;;8.40;99.90;;;;;;4085229;28;20047;-76
2021/10/17 06:54:55;;;;;;;22.42;12.02;;;8.50;99.90;;;;;;4116185;28;20046;-76
2021/10/17 06:56:56;;;;;;;18.95;11.73;;;8.50;99.90;;;;;;4083415;28;20512;-76
2021/10/17 06:58:57;;;;;;;17.77;12.52;;;8.60;99.90;;;;;;4097638;28;20070;-76
2021/10/17 07:00:57;;;;;;;21.40;11.55;;;8.70;99.90;;;;;;4099462;28;20102;-77
2021/10/17 07:02:58;;;;;;;22.48;11.07;;;8.90;99.90;;;;;;4096258;28;20051;-75
2021/10/17 07:04:59;;;;;;;18.30;11.27;;;9.00;99.90;;;;;;4098399;28;20039;-76
2021/10/17 07:07:00;;;;;;;20.98;11.82;;;9.00;99.90;;;;;;4098319;28;20062;-75
2021/10/17 07:09:00;;;;;;;18.25;10.50;;;9.00;99.90;;;;;;4099228;28;20051;-76
2021/10/17 07:11:01;;;;;;;17.83;11.07;;;9.10;99.90;;;;;;4093561;28;20051;-75
2021/10/17 07:13:02;;;;;;;15.45;11.82;;;9.10;99.90;;;;;;4099477;28;20695;-76
2021/10/17 07:15:03;;;;;;;17.48;10.70;;;9.20;99.90;;;;;;4097973;28;20094;-76
2021/10/17 07:17:04;;;;;;;20.58;11.20;;;9.30;99.90;;;;;;4099515;28;20035;-76
2021/10/17 07:19:05;;;;;;;20.13;10.07;;;9.40;99.90;;;;;;4081911;28;20082;-76
2021/10/17 07:21:06;;;;;;;20.63;11.27;;;9.50;99.90;;;;;;4082467;28;20079;-77
2021/10/17 07:23:09;;;;;;;19.25;10.60;;;9.50;99.90;;;;;;4107591;28;20096;-76
2021/10/17 07:25:10;;;;;;;;;;;9.60;99.90;;;;;;4116093;28;20037;-75
2021/10/17 07:27:11;;;;;;;27.75;12.55;;;9.60;99.90;;;;;;4098752;28;19929;-75
2021/10/17 07:29:12;;;;;;;21.88;11.20;;;9.70;99.90;;;;;;4081817;29;20447;-76
2021/10/17 07:31:13;;;;;;;17.40;11.05;;;9.70;99.90;;;;;;4089342;28;20050;-74
2021/10/17 07:33:14;;;;;;;18.98;11.40;;;9.70;99.90;;;;;;4082497;28;20474;-76
2021/10/17 07:35:15;;;;;;;14.23;11.43;;;9.80;99.90;;;;;;4083507;28;20531;-76
2021/10/17 07:37:15;;;;;;;17.00;10.38;;;10.00;99.90;;;;;;4098950;28;20046;-75
2021/10/17 07:39:16;;;;;;;24.58;11.38;;;10.10;99.90;;;;;;4105296;28;20394;-76
2021/10/17 07:41:17;;;;;;;20.98;12.43;;;10.10;99.90;;;;;;4098101;28;20074;-76
2021/10/17 07:43:18;;;;;;;19.33;11.82;;;10.20;99.90;;;;;;4099165;28;20057;-76
2021/10/17 07:45:19;;;;;;;17.48;10.07;;;10.20;99.90;;;;;;4098285;28;20037;-76
2021/10/17 07:47:19;;;;;;;16.65;10.25;;;10.30;99.90;;;;;;4097952;28;20035;-76
2021/10/17 07:49:20;;;;;;;24.27;12.82;;;10.30;99.90;;;;;;4098617;28;20042;-76
2021/10/17 07:51:21;;;;;;;24.30;10.85;;;10.40;99.90;;;;;;4097737;28;20050;-76
2021/10/17 07:53:21;;;;;;;22.33;11.52;;;10.40;99.90;;;;;;4114069;28;20046;-76
2021/10/17 07:55:22;;;;;;;19.38;11.13;;;10.40;99.90;;;;;;4096920;28;20039;-76
2021/10/17 07:57:23;;;;;;;22.58;12.43;;;10.50;99.90;;;;;;4099399;28;20088;-76
2021/10/17 07:59:24;;;;;;;22.08;12.60;;;10.50;99.90;;;;;;4097647;28;20061;-76
2021/10/17 08:01:25;;;;;;;22.75;12.38;;;10.50;99.90;;;;;;4100612;28;20502;-75
2021/10/17 08:03:26;;;;;;;16.25;11.18;;;10.50;99.90;;;;;;4098627;28;20090;-75
2021/10/17 08:05:27;;;;;;;22.05;12.07;;;10.50;99.90;;;;;;4098700;28;20034;-75
2021/10/17 08:07:28;;;;;;;16.20;10.52;;;10.50;99.90;;;;;;4099402;28;20026;-76
2021/10/17 08:09:28;;;;;;;17.98;12.35;;;10.50;99.90;;;;;;4099351;28;20042;-76
2021/10/17 08:11:29;;;;;;;19.70;11.48;;;10.50;99.90;;;;;;4100012;28;20122;-76
2021/10/17 08:13:30;;;;;;;19.33;11.90;;;10.50;99.90;;;;;;4112278;28;20104;-76
2021/10/17 08:15:31;;;;;;;20.75;12.40;;;10.50;99.90;;;;;;4098436;28;20037;-76
2021/10/17 08:17:33;;;;;;;22.73;12.77;;;10.60;99.90;;;;;;4096224;28;20085;-76
2021/10/17 08:19:33;;;;;;;16.52;10.60;;;10.50;99.90;;;;;;4098176;28;20038;-76
2021/10/17 08:21:35;;;;;;;18.38;11.93;;;10.50;99.90;;;;;;4081707;28;20051;-77
2021/10/17 08:23:35;;;;;;;14.88;11.48;;;10.50;99.90;;;;;;4080216;28;20178;-75
2021/10/17 08:25:38;;;;;;;16.70;11.20;;;10.50;99.90;;;;;;4093623;28;20039;-76
2021/10/17 08:27:41;;;;;;;20.75;11.52;;;10.50;99.90;;;;;;4110615;28;20558;-76
2021/10/17 08:29:42;;;;;;;21.40;11.68;;;10.50;99.90;;;;;;4095260;28;20047;-76
2021/10/17 08:31:43;;;;;;;21.17;11.25;;;10.50;99.90;;;;;;4096897;28;20390;-76
2021/10/17 08:33:43;;;;;;;20.15;11.82;;;10.60;99.90;;;;;;4110258;28;20066;-76
2021/10/17 08:35:45;;;;;;;18.05;11.57;;;10.60;99.90;;;;;;4126755;28;20100;-76
2021/10/17 08:37:46;;;;;;;25.25;12.23;;;10.70;99.90;;;;;;4124940;28;20123;-76
2021/10/17 08:39:47;;;;;;;24.50;12.00;;;10.70;99.90;;;;;;4111314;28;20046;-76
2021/10/17 08:41:48;;;;;;;23.33;11.68;;;10.90;99.90;;;;;;4104343;28;20039;-76
2021/10/17 08:43:49;;;;;;;20.23;13.25;;;10.90;99.90;;;;;;4097672;28;20053;-77
2021/10/17 08:45:50;;;;;;;23.15;12.05;;;11.00;99.90;;;;;;4096217;28;20067;-77
2021/10/17 08:47:51;;;;;;;22.33;12.27;;;11.10;99.90;;;;;;4113774;28;20042;-77
2021/10/17 08:49:54;;;;;;;18.67;10.23;;;11.20;99.90;;;;;;4086086;28;20047;-76
2021/10/17 08:51:55;;;;;;;32.08;13.52;;;11.30;99.90;;;;;;4114315;28;20113;-76
2021/10/17 08:53:56;;;;;;;17.35;10.82;;;11.40;99.90;;;;;;4097853;28;20078;-77
2021/10/17 08:55:57;;;;;;;18.30;11.35;;;11.50;99.90;;;;;;4096704;28;20035;-76
2021/10/17 08:57:57;;;;;;;20.67;11.07;;;11.60;99.90;;;;;;4100115;28;20046;-77
2021/10/17 09:00:00;;;;;;;21.25;10.82;;;11.60;99.90;;;;;;4096353;28;20479;-77
2021/10/17 09:02:22;;;;;;;18.75;11.20;;;11.70;99.90;;;;;;4080851;28;20054;-76
2021/10/17 09:04:27;;;;;;;20.15;10.82;;;11.80;99.90;;;;;;4104287;28;20043;-77
2021/10/17 09:06:34;;;;;;;19.75;10.40;;;11.90;99.90;;;;;;4111945;28;20039;-77
2021/10/17 09:08:34;;;;;;;17.40;11.05;;;12.00;99.90;;;;;;4126519;28;20048;-77
2021/10/17 09:10:37;;;;;;;17.50;10.48;;;11.90;99.90;;;;;;4110891;28;20121;-76
2021/10/17 09:12:41;;;;;;;15.73;9.90;;;11.90;99.90;;;;;;4108723;28;20035;-76
2021/10/17 09:14:41;;;;;;;18.08;11.20;;;11.80;99.90;;;;;;4111551;28;20050;-75
2021/10/17 09:16:46;;;;;;;20.67;12.93;;;11.90;99.90;;;;;;4110820;28;20049;-76
2021/10/17 09:18:47;;;;;;;16.73;11.52;;;11.90;99.90;;;;;;4110980;28;20225;-77
2021/10/17 09:20:48;;;;;;;17.83;11.20;;;11.80;99.90;;;;;;4103474;28;20383;-76
2021/10/17 09:22:49;;;;;;;15.07;10.20;;;12.00;99.90;;;;;;4118914;28;20042;-76
2021/10/17 09:24:50;;;;;;;17.33;10.82;;;12.10;99.90;;;;;;4111965;28;20046;-76
2021/10/17 09:27:17;;;;;;;18.73;11.65;;;12.40;99.90;;;;;;4115091;28;20053;-76
2021/10/17 09:29:31;;;;;;;20.60;10.98;;;12.60;99.90;;;;;;4109132;28;20074;-76
2021/10/17 09:31:32;;;;;;;20.23;11.23;;;12.90;99.90;;;;;;4130665;28;20039;-76
2021/10/17 09:33:41;;;;;;;17.35;11.13;;;13.00;99.90;;;;;;4131454;28;20134;-75
2021/10/17 09:35:41;;;;;;;19.75;10.90;;;13.20;99.90;;;;;;4124340;28;20027;-75
2021/10/17 09:37:44;;;;;;;12.57;9.38;;;13.50;99.90;;;;;;4116302;28;20414;-76
2021/10/17 09:39:47;;;;;;;17.40;10.43;;;13.40;99.90;;;;;;4127804;28;20058;-76
2021/10/17 09:41:51;;;;;;;16.88;10.57;;;13.40;99.90;;;;;;4099997;28;20043;-75
2021/10/17 09:43:58;;;;;;;15.25;10.55;;;13.30;99.90;;;;;;4114673;28;20149;-76
2021/10/17 09:46:13;;;;;;;17.63;10.60;;;13.10;99.90;;;;;;4113037;28;20046;-76
2021/10/17 09:48:30;;;;;;;19.48;11.15;;;13.10;99.90;;;;;;4102830;28;20031;-75
2021/10/17 09:50:30;;;;;;;14.88;10.85;;;13.10;99.90;;;;;;4126209;28;20043;-77
2021/10/17 09:52:31;;;;;;;19.83;11.15;;;13.20;99.90;;;;;;4098194;28;20576;-77
2021/10/17 09:54:32;;;;;;;16.30;11.18;;;13.40;99.90;;;;;;4114122;28;20046;-76
2021/10/17 09:56:39;;;;;;;12.25;8.95;;;13.60;99.90;;;;;;4131444;28;20041;-77
2021/10/17 09:58:39;;;;;;;17.85;10.05;;;13.70;99.90;;;;;;4125972;28;20041;-77
2021/10/17 10:00:43;;;;;;;19.63;10.27;;;13.80;99.90;;;;;;4098314;28;20089;-76
2021/10/17 10:02:47;;;;;;;22.00;11.38;;;13.90;99.90;;;;;;4099360;28;20391;-76
2021/10/17 10:04:49;;;;;;;15.77;10.55;;;14.00;99.90;;;;;;4114163;28;20042;-76
2021/10/17 10:06:52;;;;;;;15.38;10.50;;;13.90;99.90;;;;;;4126746;28;20690;-78
2021/10/17 10:09:14;;;;;;;19.42;11.50;;;13.90;99.90;;;;;;4116031;28;20122;-77
2021/10/17 10:11:22;;;;;;;16.73;10.07;;;13.80;99.90;;;;;;4102298;28;20062;-77
2021/10/17 10:13:24;;;;;;;16.25;10.32;;;13.80;99.90;;;;;;4111046;28;20083;-75
2021/10/17 10:15:26;;;;;;;16.23;8.98;;;13.80;99.90;;;;;;4127519;28;20588;-77
2021/10/17 10:17:30;;;;;;;15.57;10.07;;;13.90;99.90;;;;;;4129633;28;20486;-77
2021/10/17 10:19:32;;;;;;;15.57;10.35;;;13.80;99.90;;;;;;4097774;28;20054;-78
2021/10/17 10:21:36;;;;;;;16.95;10.90;;;13.70;99.90;;;;;;4113207;28;20093;-77
2021/10/17 10:23:37;;;;;;;16.95;10.43;;;13.80;99.90;;;;;;4114272;28;20035;-77
2021/10/17 10:25:41;;;;;;;16.23;10.40;;;13.90;99.90;;;;;;4115370;28;20035;-76